sensor_id;sensor_type;location;lat;lon;timestamp;pressure;altitude;pressure_sealevel;temperature;humidity
68654;BME280;55636;51.108;13.622;2024-02-04T00:00:18;100678.50;;;9.65;60.32
68654;BME280;55636;51.108;13.622;2024-02-04T00:01:20;100660.06;;;9.65;60.42
68654;BME280;55636;51.108;13.622;2024-02-04T00:02:23;100666.41;;;9.66;60.45
68654;BME280;55636;51.108;13.622;2024-02-04T00:03:27;100673.84;;;9.65;60.37
68654;BME280;55636;51.108;13.622;2024-02-04T00:04:29;100678.00;;;9.68;60.44
68654;BME280;55636;51.108;13.622;2024-02-04T00:05:34;100668.91;;;9.67;60.34
68654;BME280;55636;51.108;13.622;2024-02-04T00:06:37;100664.22;;;9.68;60.23
68654;BME280;55636;51.108;13.622;2024-02-04T00:07:39;100657.88;;;9.67;60.34
68654;BME280;55636;51.108;13.622;2024-02-04T00:08:42;100668.91;;;9.67;60.34
68654;BME280;55636;51.108;13.622;2024-02-04T00:09:44;100652.34;;;9.67;60.39
68654;BME280;55636;51.108;13.622;2024-02-04T00:10:46;100667.56;;;9.70;60.39
68654;BME280;55636;51.108;13.622;2024-02-04T00:11:49;100664.22;;;9.68;60.61
68654;BME280;55636;51.108;13.622;2024-02-04T00:12:51;100665.06;;;9.68;60.66
68654;BME280;55636;51.108;13.622;2024-02-04T00:13:53;100665.31;;;9.67;60.72
68654;BME280;55636;51.108;13.622;2024-02-04T00:14:56;100654.28;;;9.67;60.60
68654;BME280;55636;51.108;13.622;2024-02-04T00:15:58;100658.69;;;9.68;60.69
68654;BME280;55636;51.108;13.622;2024-02-04T00:17:01;100646.00;;;9.67;60.77
68654;BME280;55636;51.108;13.622;2024-02-04T00:18:03;100646.84;;;9.67;60.78
68654;BME280;55636;51.108;13.622;2024-02-04T00:19:06;100646.00;;;9.67;61.09
68654;BME280;55636;51.108;13.622;2024-02-04T00:20:08;100642.13;;;9.68;60.88
68654;BME280;55636;51.108;13.622;2024-02-04T00:21:11;100643.00;;;9.68;60.94
68654;BME280;55636;51.108;13.622;2024-02-04T00:22:13;100646.00;;;9.67;61.15
68654;BME280;55636;51.108;13.622;2024-02-04T00:23:19;100645.41;;;9.65;61.12
68654;BME280;55636;51.108;13.622;2024-02-04T00:24:21;100651.53;;;9.67;61.23
68654;BME280;55636;51.108;13.622;2024-02-04T00:25:24;100649.03;;;9.65;61.09
68654;BME280;55636;51.108;13.622;2024-02-04T00:26:26;100653.69;;;9.65;61.11
68654;BME280;55636;51.108;13.622;2024-02-04T00:27:28;100651.78;;;9.65;61.29
68654;BME280;55636;51.108;13.622;2024-02-04T00:28:32;100659.19;;;9.65;61.28
68654;BME280;55636;51.108;13.622;2024-02-04T00:29:34;100651.19;;;9.63;61.25
68654;BME280;55636;51.108;13.622;2024-02-04T00:30:36;100658.38;;;9.64;61.23
68654;BME280;55636;51.108;13.622;2024-02-04T00:31:39;100655.38;;;9.66;61.30
68654;BME280;55636;51.108;13.622;2024-02-04T00:32:41;100652.84;;;9.64;61.21
68654;BME280;55636;51.108;13.622;2024-02-04T00:33:44;100663.03;;;9.64;61.37
68654;BME280;55636;51.108;13.622;2024-02-04T00:34:47;100651.19;;;9.63;61.26
68654;BME280;55636;51.108;13.622;2024-02-04T00:35:49;100658.13;;;9.66;61.43
68654;BME280;55636;51.108;13.622;2024-02-04T00:36:52;100664.72;;;9.65;61.00
68654;BME280;55636;51.108;13.622;2024-02-04T00:37:55;100660.06;;;9.65;61.11
68654;BME280;55636;51.108;13.622;2024-02-04T00:38:57;100661.97;;;9.65;61.18
68654;BME280;55636;51.108;13.622;2024-02-04T00:39:59;100659.19;;;9.65;60.92
68654;BME280;55636;51.108;13.622;2024-02-04T00:41:02;100668.34;;;9.65;61.04
68654;BME280;55636;51.108;13.622;2024-02-04T00:42:05;100673.00;;;9.65;61.08
68654;BME280;55636;51.108;13.622;2024-02-04T00:43:08;100669.41;;;9.64;61.22
68654;BME280;55636;51.108;13.622;2024-02-04T00:44:10;100661.97;;;9.65;61.06
68654;BME280;55636;51.108;13.622;2024-02-04T00:45:12;100654.19;;;9.62;61.16
68654;BME280;55636;51.108;13.622;2024-02-04T00:46:15;100661.38;;;9.63;61.31
68654;BME280;55636;51.108;13.622;2024-02-04T00:47:17;100664.16;;;9.63;61.32
68654;BME280;55636;51.108;13.622;2024-02-04T00:48:20;100664.97;;;9.63;61.28
68654;BME280;55636;51.108;13.622;2024-02-04T00:49:22;100671.56;;;9.62;61.39
68654;BME280;55636;51.108;13.622;2024-02-04T00:50:25;100676.00;;;9.63;61.29
68654;BME280;55636;51.108;13.622;2024-02-04T00:51:27;100671.56;;;9.62;61.57
68654;BME280;55636;51.108;13.622;2024-02-04T00:52:30;100667.72;;;9.63;61.71
68654;BME280;55636;51.108;13.622;2024-02-04T00:53:32;100677.94;;;9.63;61.45
68654;BME280;55636;51.108;13.622;2024-02-04T00:54:38;100662.22;;;9.63;61.65
68654;BME280;55636;51.108;13.622;2024-02-04T00:55:40;100668.81;;;9.62;61.73
68654;BME280;55636;51.108;13.622;2024-02-04T00:56:43;100656.94;;;9.62;61.81
68654;BME280;55636;51.108;13.622;2024-02-04T00:57:45;100648.94;;;9.60;61.77
68654;BME280;55636;51.108;13.622;2024-02-04T00:58:48;100648.94;;;9.60;61.54
68654;BME280;55636;51.108;13.622;2024-02-04T00:59:50;100652.50;;;9.61;61.38
68654;BME280;55636;51.108;13.622;2024-02-04T01:00:53;100638.97;;;9.59;61.47
68654;BME280;55636;51.108;13.622;2024-02-04T01:01:55;100643.41;;;9.60;61.48
68654;BME280;55636;51.108;13.622;2024-02-04T01:02:58;100646.16;;;9.60;61.24
68654;BME280;55636;51.108;13.622;2024-02-04T01:04:01;100648.06;;;9.60;61.37
68654;BME280;55636;51.108;13.622;2024-02-04T01:05:04;100647.25;;;9.59;61.12
68654;BME280;55636;51.108;13.622;2024-02-04T01:06:07;100655.53;;;9.59;61.31
68654;BME280;55636;51.108;13.622;2024-02-04T01:07:10;100653.00;;;9.58;61.38
68654;BME280;55636;51.108;13.622;2024-02-04T01:08:12;100655.78;;;9.58;61.29
68654;BME280;55636;51.108;13.622;2024-02-04T01:09:16;100652.41;;;9.56;61.21
68654;BME280;55636;51.108;13.622;2024-02-04T01:10:19;100656.84;;;9.57;61.38
68654;BME280;55636;51.108;13.622;2024-02-04T01:11:21;100639.22;;;9.58;61.18
68654;BME280;55636;51.108;13.622;2024-02-04T01:12:23;100647.97;;;9.54;61.16
68654;BME280;55636;51.108;13.622;2024-02-04T01:13:27;100655.16;;;9.56;60.98
68654;BME280;55636;51.108;13.622;2024-02-04T01:14:30;100647.97;;;9.54;60.95
68654;BME280;55636;51.108;13.622;2024-02-04T01:15:32;100660.09;;;9.53;60.91
68654;BME280;55636;51.108;13.622;2024-02-04T01:16:35;100651.81;;;9.53;60.78
68654;BME280;55636;51.108;13.622;2024-02-04T01:17:37;100658.19;;;9.54;60.80
68654;BME280;55636;51.108;13.622;2024-02-04T01:18:40;100665.59;;;9.53;60.75
68654;BME280;55636;51.108;13.622;2024-02-04T01:19:43;100663.94;;;9.52;60.76
68654;BME280;55636;51.108;13.622;2024-02-04T01:20:45;100668.34;;;9.53;60.61
68654;BME280;55636;51.108;13.622;2024-02-04T01:21:48;100657.81;;;9.50;60.83
68654;BME280;55636;51.108;13.622;2024-02-04T01:22:50;100672.44;;;9.51;60.76
68654;BME280;55636;51.108;13.622;2024-02-04T01:23:52;100671.38;;;9.52;60.74
68654;BME280;55636;51.108;13.622;2024-02-04T01:24:55;100670.53;;;9.51;60.56
68654;BME280;55636;51.108;13.622;2024-02-04T01:25:57;100666.94;;;9.51;60.60
68654;BME280;55636;51.108;13.622;2024-02-04T01:27:00;100665.84;;;9.52;60.65
68654;BME280;55636;51.108;13.622;2024-02-04T01:28:03;100667.78;;;9.51;60.46
68654;BME280;55636;51.108;13.622;2024-02-04T01:29:06;100660.34;;;9.52;60.54
68654;BME280;55636;51.108;13.622;2024-02-04T01:30:08;100649.03;;;9.53;60.36
68654;BME280;55636;51.108;13.622;2024-02-04T01:31:11;100653.75;;;9.53;60.40
68654;BME280;55636;51.108;13.622;2024-02-04T01:32:13;100654.81;;;9.52;60.27
68654;BME280;55636;51.108;13.622;2024-02-04T01:33:17;100660.34;;;9.52;60.37
68654;BME280;55636;51.108;13.622;2024-02-04T01:34:20;100656.50;;;9.53;60.32
68654;BME280;55636;51.108;13.622;2024-02-04T01:35:22;100656.50;;;9.53;60.11
68654;BME280;55636;51.108;13.622;2024-02-04T01:36:25;100650.16;;;9.52;60.06
68654;BME280;55636;51.108;13.622;2024-02-04T01:37:27;100656.50;;;9.53;60.07
68654;BME280;55636;51.108;13.622;2024-02-04T01:38:30;100654.56;;;9.53;60.02
68654;BME280;55636;51.108;13.622;2024-02-04T01:39:32;100660.09;;;9.53;59.95
68654;BME280;55636;51.108;13.622;2024-02-04T01:40:34;100658.66;;;9.51;59.85
68654;BME280;55636;51.108;13.622;2024-02-04T01:41:38;100651.25;;;9.51;59.84
68654;BME280;55636;51.108;13.622;2024-02-04T01:42:40;100655.69;;;9.52;59.71
68654;BME280;55636;51.108;13.622;2024-02-04T01:43:42;100661.19;;;9.52;59.61
68654;BME280;55636;51.108;13.622;2024-02-04T01:44:45;100661.19;;;9.52;59.57
68654;BME280;55636;51.108;13.622;2024-02-04T01:45:50;100654.81;;;9.52;59.42
68654;BME280;55636;51.108;13.622;2024-02-04T01:46:52;100652.31;;;9.50;59.45
68654;BME280;55636;51.108;13.622;2024-02-04T01:47:56;100643.22;;;9.50;59.34
68654;BME280;55636;51.108;13.622;2024-02-04T01:48:59;100655.06;;;9.50;59.11
68654;BME280;55636;51.108;13.622;2024-02-04T01:50:02;100650.88;;;9.48;59.19
68654;BME280;55636;51.108;13.622;2024-02-04T01:51:05;100659.16;;;9.48;59.21
68654;BME280;55636;51.108;13.622;2024-02-04T01:52:09;100659.41;;;9.46;59.12
68654;BME280;55636;51.108;13.622;2024-02-04T01:53:15;100662.16;;;9.46;59.29
68654;BME280;55636;51.108;13.622;2024-02-04T01:54:18;100664.06;;;9.46;59.27
68654;BME280;55636;51.108;13.622;2024-02-04T01:55:21;100659.66;;;9.45;59.15
68654;BME280;55636;51.108;13.622;2024-02-04T01:56:23;100660.72;;;9.44;59.26
68654;BME280;55636;51.108;13.622;2024-02-04T01:57:26;100673.66;;;9.43;59.23
68654;BME280;55636;51.108;13.622;2024-02-04T01:58:28;100658.22;;;9.42;59.04
68654;BME280;55636;51.108;13.622;2024-02-04T01:59:31;100662.88;;;9.42;59.28
68654;BME280;55636;51.108;13.622;2024-02-04T02:00:34;100667.56;;;9.41;59.30
68654;BME280;55636;51.108;13.622;2024-02-04T02:01:37;100664.81;;;9.41;59.23
68654;BME280;55636;51.108;13.622;2024-02-04T02:02:40;100661.25;;;9.41;59.11
68654;BME280;55636;51.108;13.622;2024-02-04T02:03:43;100660.38;;;9.40;59.22
68654;BME280;55636;51.108;13.622;2024-02-04T02:04:46;100654.28;;;9.38;59.24
68654;BME280;55636;51.108;13.622;2024-02-04T02:05:48;100656.81;;;9.40;59.13
68654;BME280;55636;51.108;13.622;2024-02-04T02:06:54;100647.91;;;9.37;59.20
68654;BME280;55636;51.108;13.622;2024-02-04T02:07:57;100646.25;;;9.36;59.13
68654;BME280;55636;51.108;13.622;2024-02-04T02:09:01;100640.72;;;9.36;59.04
68654;BME280;55636;51.108;13.622;2024-02-04T02:10:05;100648.78;;;9.38;59.16
68654;BME280;55636;51.108;13.622;2024-02-04T02:11:13;100645.41;;;9.36;59.20
68654;BME280;55636;51.108;13.622;2024-02-04T02:12:34;100644.59;;;9.35;59.37
68654;BME280;55636;51.108;13.622;2024-02-04T02:13:40;100645.66;;;9.34;59.29
68654;BME280;55636;51.108;13.622;2024-02-04T02:14:48;100642.06;;;9.34;59.43
68654;BME280;55636;51.108;13.622;2024-02-04T02:15:59;100631.03;;;9.34;59.61
68654;BME280;55636;51.108;13.622;2024-02-04T02:17:07;100629.38;;;9.33;59.55
68654;BME280;55636;51.108;13.622;2024-02-04T02:18:14;100633.22;;;9.32;59.40
68654;BME280;55636;51.108;13.622;2024-02-04T02:22:24;100630.69;;;9.30;59.68
68654;BME280;55636;51.108;13.622;2024-02-04T02:23:34;100625.66;;;9.27;59.78
68654;BME280;55636;51.108;13.622;2024-02-04T02:24:38;100630.34;;;9.27;59.59
68654;BME280;55636;51.108;13.622;2024-02-04T02:25:46;100624.84;;;9.27;59.99
68654;BME280;55636;51.108;13.622;2024-02-04T02:26:50;100626.75;;;9.26;59.86
68654;BME280;55636;51.108;13.622;2024-02-04T02:27:53;100623.16;;;9.26;60.00
68654;BME280;55636;51.108;13.622;2024-02-04T02:28:56;100623.97;;;9.26;59.88
68654;BME280;55636;51.108;13.622;2024-02-04T02:29:58;100622.34;;;9.25;59.88
68654;BME280;55636;51.108;13.622;2024-02-04T02:31:02;100622.34;;;9.25;60.04
68654;BME280;55636;51.108;13.622;2024-02-04T02:32:09;100623.97;;;9.26;59.99
68654;BME280;55636;51.108;13.622;2024-02-04T02:33:12;100630.59;;;9.25;60.12
68654;BME280;55636;51.108;13.622;2024-02-04T02:34:15;100625.91;;;9.26;60.06
68654;BME280;55636;51.108;13.622;2024-02-04T02:35:22;100622.56;;;9.24;60.26
68654;BME280;55636;51.108;13.622;2024-02-04T02:36:28;100621.47;;;9.25;60.33
68654;BME280;55636;51.108;13.622;2024-02-04T02:39:08;100625.09;;;9.25;60.40
68654;BME280;55636;51.108;13.622;2024-02-04T02:40:16;100632.50;;;9.25;60.48
68654;BME280;55636;51.108;13.622;2024-02-04T02:41:21;100633.56;;;9.24;60.44
68654;BME280;55636;51.108;13.622;2024-02-04T02:42:25;100638.25;;;9.23;60.34
68654;BME280;55636;51.108;13.622;2024-02-04T02:43:29;100641.03;;;9.23;60.59
68654;BME280;55636;51.108;13.622;2024-02-04T02:44:33;100642.72;;;9.24;60.63
68654;BME280;55636;51.108;13.622;2024-02-04T02:45:38;100637.19;;;9.24;60.79
68654;BME280;55636;51.108;13.622;2024-02-04T02:46:41;100631.94;;;9.23;60.65
68654;BME280;55636;51.108;13.622;2024-02-04T02:47:45;100624.47;;;9.23;60.60
68654;BME280;55636;51.108;13.622;2024-02-04T02:48:48;100625.31;;;9.24;60.87
68654;BME280;55636;51.108;13.622;2024-02-04T02:49:52;100620.66;;;9.24;60.74
68654;BME280;55636;51.108;13.622;2024-02-04T02:50:55;100622.56;;;9.24;61.00
68654;BME280;55636;51.108;13.622;2024-02-04T02:51:57;100623.16;;;9.26;60.97
68654;BME280;55636;51.108;13.622;2024-02-04T02:53:00;100627.00;;;9.25;61.00
68654;BME280;55636;51.108;13.622;2024-02-04T02:54:02;100615.97;;;9.25;60.96
68654;BME280;55636;51.108;13.622;2024-02-04T02:55:05;100631.44;;;9.26;61.12
68654;BME280;55636;51.108;13.622;2024-02-04T02:56:08;100619.56;;;9.25;61.14
68654;BME280;55636;51.108;13.622;2024-02-04T02:57:10;100622.66;;;9.29;61.11
68654;BME280;55636;51.108;13.622;2024-02-04T02:58:14;100616.56;;;9.27;61.11
68654;BME280;55636;51.108;13.622;2024-02-04T02:59:16;100619.31;;;9.27;61.19
68654;BME280;55636;51.108;13.622;2024-02-04T03:00:18;100615.50;;;9.28;61.11
68654;BME280;55636;51.108;13.622;2024-02-04T03:01:21;100621.56;;;9.30;61.11
68654;BME280;55636;51.108;13.622;2024-02-04T03:02:23;100615.50;;;9.28;61.10
68654;BME280;55636;51.108;13.622;2024-02-04T03:03:26;100626.00;;;9.31;61.34
68654;BME280;55636;51.108;13.622;2024-02-04T03:04:29;100621.31;;;9.31;61.09
68654;BME280;55636;51.108;13.622;2024-02-04T03:05:31;100624.94;;;9.32;61.21
68654;BME280;55636;51.108;13.622;2024-02-04T03:06:34;100620.50;;;9.31;61.05
68654;BME280;55636;51.108;13.622;2024-02-04T03:07:37;100620.50;;;9.31;61.43
68654;BME280;55636;51.108;13.622;2024-02-04T03:08:39;100623.25;;;9.31;61.11
68654;BME280;55636;51.108;13.622;2024-02-04T03:09:41;100625.75;;;9.32;61.23
68654;BME280;55636;51.108;13.622;2024-02-04T03:10:44;100623.88;;;9.33;61.28
68654;BME280;55636;51.108;13.622;2024-02-04T03:11:46;100628.28;;;9.34;61.35
68654;BME280;55636;51.108;13.622;2024-02-04T03:12:48;100620.00;;;9.34;61.15
68654;BME280;55636;51.108;13.622;2024-02-04T03:13:51;100620.59;;;9.36;61.19
68654;BME280;55636;51.108;13.622;2024-02-04T03:14:53;100618.09;;;9.34;61.25
68654;BME280;55636;51.108;13.622;2024-02-04T03:15:56;100615.34;;;9.34;61.08
68654;BME280;55636;51.108;13.622;2024-02-04T03:16:58;100620.00;;;9.34;61.33
68654;BME280;55636;51.108;13.622;2024-02-04T03:18:01;100617.03;;;9.35;61.24
68654;BME280;55636;51.108;13.622;2024-02-04T03:19:07;100613.16;;;9.36;61.22
68654;BME280;55636;51.108;13.622;2024-02-04T03:20:10;100618.91;;;9.35;61.12
68654;BME280;55636;51.108;13.622;2024-02-04T03:21:13;100614.25;;;9.35;61.23
68654;BME280;55636;51.108;13.622;2024-02-04T03:22:16;100611.00;;;9.38;61.30
68654;BME280;55636;51.108;13.622;2024-02-04T03:23:18;100618.44;;;9.38;61.28
68654;BME280;55636;51.108;13.622;2024-02-04T03:24:21;100614.00;;;9.37;61.50
68654;BME280;55636;51.108;13.622;2024-02-04T03:25:24;100614.59;;;9.39;61.54
68654;BME280;55636;51.108;13.622;2024-02-04T03:26:29;100625.88;;;9.37;61.61
68654;BME280;55636;51.108;13.622;2024-02-04T03:27:31;100614.59;;;9.39;61.57
68654;BME280;55636;51.108;13.622;2024-02-04T03:28:34;100622.03;;;9.38;61.64
68654;BME280;55636;51.108;13.622;2024-02-04T03:29:36;100624.53;;;9.40;61.41
68654;BME280;55636;51.108;13.622;2024-02-04T03:30:39;100619.03;;;9.40;61.61
68654;BME280;55636;51.108;13.622;2024-02-04T03:31:41;100630.06;;;9.40;61.63
68654;BME280;55636;51.108;13.622;2024-02-04T03:32:44;100624.53;;;9.40;61.36
68654;BME280;55636;51.108;13.622;2024-02-04T03:33:47;100614.94;;;9.43;61.40
68654;BME280;55636;51.108;13.622;2024-02-04T03:34:50;100616.25;;;9.40;61.54
68654;BME280;55636;51.108;13.622;2024-02-04T03:35:52;100628.38;;;9.39;61.35
68654;BME280;55636;51.108;13.622;2024-02-04T03:36:55;100630.91;;;9.41;61.27
68654;BME280;55636;51.108;13.622;2024-02-04T03:37:57;100624.53;;;9.40;61.29
68654;BME280;55636;51.108;13.622;2024-02-04T03:38:59;100624.53;;;9.40;61.30
68654;BME280;55636;51.108;13.622;2024-02-04T03:40:02;100631.72;;;9.41;61.07
68654;BME280;55636;51.108;13.622;2024-02-04T03:41:05;100627.28;;;9.40;61.10
68654;BME280;55636;51.108;13.622;2024-02-04T03:42:07;100633.66;;;9.41;61.11
68654;BME280;55636;51.108;13.622;2024-02-04T03:43:10;100634.50;;;9.41;61.13
68654;BME280;55636;51.108;13.622;2024-02-04T03:44:12;100630.31;;;9.38;60.99
68654;BME280;55636;51.108;13.622;2024-02-04T03:45:14;100636.91;;;9.37;61.19
68654;BME280;55636;51.108;13.622;2024-02-04T03:46:17;100644.09;;;9.38;60.86
68654;BME280;55636;51.108;13.622;2024-02-04T03:47:19;100634.75;;;9.40;61.03
68654;BME280;55636;51.108;13.622;2024-02-04T03:48:21;100633.88;;;9.39;60.98
68654;BME280;55636;51.108;13.622;2024-02-04T03:49:24;100637.75;;;9.38;60.90
68654;BME280;55636;51.108;13.622;2024-02-04T03:50:27;100633.88;;;9.39;60.83
68654;BME280;55636;51.108;13.622;2024-02-04T03:51:29;100642.16;;;9.39;60.81
68654;BME280;55636;51.108;13.622;2024-02-04T03:52:33;100635.00;;;9.38;60.87
68654;BME280;55636;51.108;13.622;2024-02-04T03:53:35;100640.50;;;9.38;60.65
68654;BME280;55636;51.108;13.622;2024-02-04T03:54:37;100644.09;;;9.38;60.63
68654;BME280;55636;51.108;13.622;2024-02-04T03:55:40;100648.53;;;9.40;60.77
68654;BME280;55636;51.108;13.622;2024-02-04T03:56:42;100648.28;;;9.41;60.84
68654;BME280;55636;51.108;13.622;2024-02-04T03:57:45;100647.66;;;9.39;60.77
68654;BME280;55636;51.108;13.622;2024-02-04T03:58:47;100646.84;;;9.38;60.83
68654;BME280;55636;51.108;13.622;2024-02-04T03:59:49;100644.91;;;9.39;60.71
68654;BME280;55636;51.108;13.622;2024-02-04T04:00:55;100637.50;;;9.40;60.83
68654;BME280;55636;51.108;13.622;2024-02-04T04:01:58;100633.06;;;9.38;60.94
68654;BME280;55636;51.108;13.622;2024-02-04T04:03:01;100637.75;;;9.38;60.99
68654;BME280;55636;51.108;13.622;2024-02-04T04:04:03;100635.00;;;9.38;60.89
68654;BME280;55636;51.108;13.622;2024-02-04T04:05:10;100629.47;;;9.38;60.79
68654;BME280;55636;51.108;13.622;2024-02-04T04:06:14;100623.09;;;9.37;60.95
68654;BME280;55636;51.108;13.622;2024-02-04T04:07:16;100621.22;;;9.38;61.02
68654;BME280;55636;51.108;13.622;2024-02-04T04:08:19;100613.75;;;9.38;60.88
68654;BME280;55636;51.108;13.622;2024-02-04T04:09:21;100606.56;;;9.37;61.01
68654;BME280;55636;51.108;13.622;2024-02-04T04:10:24;100612.69;;;9.40;60.82
68654;BME280;55636;51.108;13.622;2024-02-04T04:11:26;100611.81;;;9.39;60.97
68654;BME280;55636;51.108;13.622;2024-02-04T04:12:29;100607.41;;;9.38;60.90
68654;BME280;55636;51.108;13.622;2024-02-04T04:13:31;100603.81;;;9.37;60.88
68654;BME280;55636;51.108;13.622;2024-02-04T04:14:37;100601.06;;;9.37;60.83
68654;BME280;55636;51.108;13.622;2024-02-04T04:15:39;100603.56;;;9.39;60.82
68654;BME280;55636;51.108;13.622;2024-02-04T04:16:44;100604.66;;;9.38;60.63
68654;BME280;55636;51.108;13.622;2024-02-04T04:17:46;100602.97;;;9.37;60.70
68654;BME280;55636;51.108;13.622;2024-02-04T04:18:49;100606.56;;;9.37;60.66
68654;BME280;55636;51.108;13.622;2024-02-04T04:19:52;100593.63;;;9.38;60.56
68654;BME280;55636;51.108;13.622;2024-02-04T04:20:54;100608.25;;;9.38;60.58
68654;BME280;55636;51.108;13.622;2024-02-04T04:21:57;100599.97;;;9.38;60.62
68654;BME280;55636;51.108;13.622;2024-02-04T04:22:59;100600.81;;;9.39;60.64
68654;BME280;55636;51.108;13.622;2024-02-04T04:24:02;100592.78;;;9.37;60.69
68654;BME280;55636;51.108;13.622;2024-02-04T04:25:04;100586.19;;;9.38;60.64
68654;BME280;55636;51.108;13.622;2024-02-04T04:26:07;100580.69;;;9.38;60.63
68654;BME280;55636;51.108;13.622;2024-02-04T04:27:09;100577.91;;;9.38;60.57
68654;BME280;55636;51.108;13.622;2024-02-04T04:28:12;100580.06;;;9.36;60.51
68654;BME280;55636;51.108;13.622;2024-02-04T04:29:14;100584.50;;;9.37;60.62
68654;BME280;55636;51.108;13.622;2024-02-04T04:30:16;100586.19;;;9.38;60.44
68654;BME280;55636;51.108;13.622;2024-02-04T04:31:19;100588.13;;;9.38;60.52
68654;BME280;55636;51.108;13.622;2024-02-04T04:32:21;100586.44;;;9.37;60.59
68654;BME280;55636;51.108;13.622;2024-02-04T04:33:23;100584.50;;;9.37;60.54
68654;BME280;55636;51.108;13.622;2024-02-04T04:34:26;100591.09;;;9.36;60.73
68654;BME280;55636;51.108;13.622;2024-02-04T04:35:28;100596.41;;;9.38;60.56
68654;BME280;55636;51.108;13.622;2024-02-04T04:36:31;100596.63;;;9.36;60.63
68654;BME280;55636;51.108;13.622;2024-02-04T04:37:34;100594.47;;;9.38;60.68
68654;BME280;55636;51.108;13.622;2024-02-04T04:38:36;100595.53;;;9.37;60.62
68654;BME280;55636;51.108;13.622;2024-02-04T04:39:38;100599.16;;;9.38;60.53
68654;BME280;55636;51.108;13.622;2024-02-04T04:40:41;100577.91;;;9.38;60.55
68654;BME280;55636;51.108;13.622;2024-02-04T04:41:44;100591.94;;;9.37;60.58
68654;BME280;55636;51.108;13.622;2024-02-04T04:42:46;100595.78;;;9.36;60.65
68654;BME280;55636;51.108;13.622;2024-02-04T04:43:49;100593.84;;;9.36;60.67
68654;BME280;55636;51.108;13.622;2024-02-04T04:44:51;100593.84;;;9.36;60.55
68654;BME280;55636;51.108;13.622;2024-02-04T04:45:54;100591.94;;;9.37;60.63
68654;BME280;55636;51.108;13.622;2024-02-04T04:46:57;100586.44;;;9.37;60.58
68654;BME280;55636;51.108;13.622;2024-02-04T04:47:59;100585.38;;;9.38;60.36
68654;BME280;55636;51.108;13.622;2024-02-04T04:49:02;100593.84;;;9.36;60.58
68654;BME280;55636;51.108;13.622;2024-02-04T04:50:05;100586.19;;;9.38;60.60
68654;BME280;55636;51.108;13.622;2024-02-04T04:51:08;100592.53;;;9.39;60.62
68654;BME280;55636;51.108;13.622;2024-02-04T04:52:11;100589.78;;;9.39;60.56
68654;BME280;55636;51.108;13.622;2024-02-04T04:53:13;100594.22;;;9.40;60.85
68654;BME280;55636;51.108;13.622;2024-02-04T04:54:16;100589.78;;;9.39;60.60
68654;BME280;55636;51.108;13.622;2024-02-04T04:55:19;100588.13;;;9.38;60.67
68654;BME280;55636;51.108;13.622;2024-02-04T04:56:22;100588.13;;;9.38;60.67
68654;BME280;55636;51.108;13.622;2024-02-04T04:57:24;100588.94;;;9.38;60.70
68654;BME280;55636;51.108;13.622;2024-02-04T04:58:26;100583.44;;;9.38;60.60
68654;BME280;55636;51.108;13.622;2024-02-04T04:59:29;100584.25;;;9.39;60.61
68654;BME280;55636;51.108;13.622;2024-02-04T05:00:31;100585.94;;;9.40;60.69
68654;BME280;55636;51.108;13.622;2024-02-04T05:01:33;100581.50;;;9.39;60.50
68654;BME280;55636;51.108;13.622;2024-02-04T05:02:36;100575.97;;;9.39;60.59
68654;BME280;55636;51.108;13.622;2024-02-04T05:03:40;100566.63;;;9.40;60.63
68654;BME280;55636;51.108;13.622;2024-02-04T05:04:43;100569.38;;;9.40;60.30
68654;BME280;55636;51.108;13.622;2024-02-04T05:05:50;100577.41;;;9.42;60.45
68654;BME280;55636;51.108;13.622;2024-02-04T05:06:52;100574.91;;;9.40;60.36
68654;BME280;55636;51.108;13.622;2024-02-04T05:07:55;100576.84;;;9.40;60.24
68654;BME280;55636;51.108;13.622;2024-02-04T05:08:58;100574.09;;;9.40;60.16
68654;BME280;55636;51.108;13.622;2024-02-04T05:10:01;100570.47;;;9.39;60.43
68654;BME280;55636;51.108;13.622;2024-02-04T05:11:04;100574.34;;;9.38;60.34
68654;BME280;55636;51.108;13.622;2024-02-04T05:12:08;100559.44;;;9.39;60.10
68654;BME280;55636;51.108;13.622;2024-02-04T05:13:12;100578.53;;;9.41;60.15
68654;BME280;55636;51.108;13.622;2024-02-04T05:14:14;100567.50;;;9.41;59.98
68654;BME280;55636;51.108;13.622;2024-02-04T05:15:17;100565.56;;;9.41;60.07
68654;BME280;55636;51.108;13.622;2024-02-04T05:16:19;100574.91;;;9.40;60.26
68654;BME280;55636;51.108;13.622;2024-02-04T05:17:22;100572.16;;;9.40;60.21
68654;BME280;55636;51.108;13.622;2024-02-04T05:18:24;100568.56;;;9.40;60.05
68654;BME280;55636;51.108;13.622;2024-02-04T05:19:29;100566.88;;;9.38;60.14
68654;BME280;55636;51.108;13.622;2024-02-04T05:20:31;100565.56;;;9.41;60.14
68654;BME280;55636;51.108;13.622;2024-02-04T05:21:40;100563.06;;;9.40;60.23
68654;BME280;55636;51.108;13.622;2024-02-04T05:22:42;100555.59;;;9.40;60.12
68654;BME280;55636;51.108;13.622;2024-02-04T05:23:45;100553.69;;;9.41;60.19
68654;BME280;55636;51.108;13.622;2024-02-04T05:24:47;100565.81;;;9.40;60.19
68654;BME280;55636;51.108;13.622;2024-02-04T05:25:49;100559.44;;;9.39;60.51
68654;BME280;55636;51.108;13.622;2024-02-04T05:26:52;100563.88;;;9.40;60.47
68654;BME280;55636;51.108;13.622;2024-02-04T05:27:54;100556.09;;;9.37;60.59
68654;BME280;55636;51.108;13.622;2024-02-04T05:28:57;100555.84;;;9.38;60.65
68654;BME280;55636;51.108;13.622;2024-02-04T05:29:59;100555.84;;;9.38;60.57
68654;BME280;55636;51.108;13.622;2024-02-04T05:31:02;100560.56;;;9.38;60.81
68654;BME280;55636;51.108;13.622;2024-02-04T05:32:05;100559.44;;;9.39;60.68
68654;BME280;55636;51.108;13.622;2024-02-04T05:33:07;100551.16;;;9.39;60.68
68654;BME280;55636;51.108;13.622;2024-02-04T05:34:10;100550.34;;;9.38;60.78